sensor_id;sensor_type;location;lat;lon;timestamp;pressure;altitude;pressure_sealevel;temperature;humidity
47785;BME280;35233;55.686;37.848;2023-01-29T00:01:52;99974.56;;;9.80;48.63
47785;BME280;35233;55.686;37.848;2023-01-29T00:04:17;99965.84;;;9.78;48.66
47785;BME280;35233;55.686;37.848;2023-01-29T00:06:43;99986.81;;;9.84;48.67
47785;BME280;35233;55.686;37.848;2023-01-29T00:09:09;99984.19;;;9.83;48.73
47785;BME280;35233;55.686;37.848;2023-01-29T00:11:35;99972.84;;;9.79;49.09
47785;BME280;35233;55.686;37.848;2023-01-29T00:14:01;99982.47;;;9.83;49.02
47785;BME280;35233;55.686;37.848;2023-01-29T00:16:26;99971.13;;;9.78;48.77
47785;BME280;35233;55.686;37.848;2023-01-29T00:18:52;99974.56;;;9.80;48.84
47785;BME280;35233;55.686;37.848;2023-01-29T00:21:19;99976.34;;;9.81;48.89
47785;BME280;35233;55.686;37.848;2023-01-29T00:23:45;99985.13;;;9.80;48.91
47785;BME280;35233;55.686;37.848;2023-01-29T00:26:11;99977.28;;;9.77;49.31
47785;BME280;35233;55.686;37.848;2023-01-29T00:28:37;99973.78;;;9.77;49.27
47785;BME280;35233;55.686;37.848;2023-01-29T00:31:13;99977.22;;;9.80;49.16
47785;BME280;35233;55.686;37.848;2023-01-29T00:33:39;99944.09;;;9.65;49.35
47785;BME280;35233;55.686;37.848;2023-01-29T00:36:08;99968.50;;;9.77;49.37
47785;BME280;35233;55.686;37.848;2023-01-29T00:38:35;99969.34;;;9.77;49.08
47785;BME280;35233;55.686;37.848;2023-01-29T00:41:08;99954.56;;;9.70;49.18
47785;BME280;35233;55.686;37.848;2023-01-29T00:43:52;99957.16;;;9.71;49.71
47785;BME280;35233;55.686;37.848;2023-01-29T00:46:36;99962.41;;;9.73;49.37
47785;BME280;35233;55.686;37.848;2023-01-29T00:49:02;99962.44;;;9.71;49.52
47785;BME280;35233;55.686;37.848;2023-01-29T00:51:28;99962.47;;;9.70;49.63
47785;BME280;35233;55.686;37.848;2023-01-29T00:53:53;99958.13;;;9.69;49.55
47785;BME280;35233;55.686;37.848;2023-01-29T00:56:23;99944.06;;;9.67;49.37
47785;BME280;35233;55.686;37.848;2023-01-29T00:58:49;99942.31;;;9.67;49.51
47785;BME280;35233;55.686;37.848;2023-01-29T01:01:14;99956.34;;;9.69;49.43
47785;BME280;35233;55.686;37.848;2023-01-29T01:03:40;99937.16;;;9.61;49.44
47785;BME280;35233;55.686;37.848;2023-01-29T01:06:09;99943.22;;;9.65;49.58
47785;BME280;35233;55.686;37.848;2023-01-29T01:08:35;99939.72;;;9.66;49.60
47785;BME280;35233;55.686;37.848;2023-01-29T01:11:19;99936.28;;;9.61;49.85
47785;BME280;35233;55.686;37.848;2023-01-29T01:13:45;99941.50;;;9.64;49.69
47785;BME280;35233;55.686;37.848;2023-01-29T01:16:12;99947.63;;;9.64;49.84
47785;BME280;35233;55.686;37.848;2023-01-29T01:18:38;99946.78;;;9.64;49.80
47785;BME280;35233;55.686;37.848;2023-01-29T01:21:04;99950.34;;;9.61;49.97
47785;BME280;35233;55.686;37.848;2023-01-29T01:23:30;99919.03;;;9.44;50.17
47785;BME280;35233;55.686;37.848;2023-01-29T01:25:55;99934.59;;;9.57;49.87
47785;BME280;35233;55.686;37.848;2023-01-29T01:28:21;99932.00;;;9.53;50.09
47785;BME280;35233;55.686;37.848;2023-01-29T01:30:46;99939.00;;;9.56;49.79
47785;BME280;35233;55.686;37.848;2023-01-29T01:33:12;99944.28;;;9.56;49.84
47785;BME280;35233;55.686;37.848;2023-01-29T01:35:38;99946.97;;;9.55;49.85
47785;BME280;35233;55.686;37.848;2023-01-29T01:38:05;99938.31;;;9.46;50.03
47785;BME280;35233;55.686;37.848;2023-01-29T01:40:31;99942.56;;;9.53;49.90
47785;BME280;35233;55.686;37.848;2023-01-29T01:42:58;99934.78;;;9.47;49.88
47785;BME280;35233;55.686;37.848;2023-01-29T01:45:29;99942.63;;;9.52;49.65
47785;BME280;35233;55.686;37.848;2023-01-29T01:48:02;99928.69;;;9.45;49.93
47785;BME280;35233;55.686;37.848;2023-01-29T01:53:11;99931.19;;;9.51;49.85
47785;BME280;35233;55.686;37.848;2023-01-29T01:55:46;99919.03;;;9.44;50.05
47785;BME280;35233;55.686;37.848;2023-01-29T01:58:15;99926.00;;;9.48;50.00
47785;BME280;35233;55.686;37.848;2023-01-29T02:00:42;99918.16;;;9.42;50.04
47785;BME280;35233;55.686;37.848;2023-01-29T02:03:08;99925.16;;;9.45;49.87
47785;BME280;35233;55.686;37.848;2023-01-29T02:05:54;99926.03;;;9.45;50.01
47785;BME280;35233;55.686;37.848;2023-01-29T02:11:30;99914.66;;;9.43;50.36
47785;BME280;35233;55.686;37.848;2023-01-29T02:13:56;99915.53;;;9.42;50.30
47785;BME280;35233;55.686;37.848;2023-01-29T02:16:22;99911.22;;;9.38;50.14
47785;BME280;35233;55.686;37.848;2023-01-29T02:18:48;99897.38;;;9.28;50.31
47785;BME280;35233;55.686;37.848;2023-01-29T02:24:31;99909.50;;;9.37;50.19
47785;BME280;35233;55.686;37.848;2023-01-29T02:27:32;99896.44;;;9.29;50.53
47785;BME280;35233;55.686;37.848;2023-01-29T02:30:05;99894.66;;;9.32;50.29
47785;BME280;35233;55.686;37.848;2023-01-29T02:32:41;99900.75;;;9.35;50.31
47785;BME280;35233;55.686;37.848;2023-01-29T02:35:29;99886.81;;;9.28;50.29
47785;BME280;35233;55.686;37.848;2023-01-29T02:41:15;99885.91;;;9.31;50.23
47785;BME280;35233;55.686;37.848;2023-01-29T02:43:52;99885.94;;;9.28;50.15
47785;BME280;35233;55.686;37.848;2023-01-29T02:46:34;99880.69;;;9.28;50.13
47785;BME280;35233;55.686;37.848;2023-01-29T02:51:50;99879.78;;;9.29;50.09
47785;BME280;35233;55.686;37.848;2023-01-29T02:54:23;99871.88;;;9.29;50.18
47785;BME280;35233;55.686;37.848;2023-01-29T02:56:57;99870.16;;;9.25;50.08
47785;BME280;35233;55.686;37.848;2023-01-29T02:59:32;99874.56;;;9.26;50.29
47785;BME280;35233;55.686;37.848;2023-01-29T03:02:04;99866.78;;;9.20;50.24
47785;BME280;35233;55.686;37.848;2023-01-29T03:04:35;99871.06;;;9.24;50.25
47785;BME280;35233;55.686;37.848;2023-01-29T03:07:06;99859.69;;;9.22;50.05
47785;BME280;35233;55.686;37.848;2023-01-29T03:09:46;99848.34;;;9.18;50.04
47785;BME280;35233;55.686;37.848;2023-01-29T03:12:21;99848.31;;;9.20;49.99
47785;BME280;35233;55.686;37.848;2023-01-29T03:15:02;99851.81;;;9.20;50.17
47785;BME280;35233;55.686;37.848;2023-01-29T03:17:49;99852.72;;;9.19;50.11
47785;BME280;35233;55.686;37.848;2023-01-29T03:20:18;99849.19;;;9.19;50.13
47785;BME280;35233;55.686;37.848;2023-01-29T03:22:48;99837.00;;;9.15;50.08
47785;BME280;35233;55.686;37.848;2023-01-29T03:25:17;99841.34;;;9.17;50.04
47785;BME280;35233;55.686;37.848;2023-01-29T03:28:03;99829.09;;;9.13;50.14
47785;BME280;35233;55.686;37.848;2023-01-29T03:30:47;99832.53;;;9.18;49.93
47785;BME280;35233;55.686;37.848;2023-01-29T03:33:42;99829.94;;;9.17;50.19
47785;BME280;35233;55.686;37.848;2023-01-29T03:36:18;99820.28;;;9.16;50.12
47785;BME280;35233;55.686;37.848;2023-01-29T03:38:46;99812.44;;;9.13;50.17
47785;BME280;35233;55.686;37.848;2023-01-29T03:43:49;99811.50;;;9.17;50.35
47785;BME280;35233;55.686;37.848;2023-01-29T03:46:40;99808.84;;;9.17;50.13
47785;BME280;35233;55.686;37.848;2023-01-29T03:49:13;99805.31;;;9.18;50.04
47785;BME280;35233;55.686;37.848;2023-01-29T03:54:27;99791.28;;;9.16;50.28
47785;BME280;35233;55.686;37.848;2023-01-29T03:57:11;99779.13;;;9.09;50.35
47785;BME280;35233;55.686;37.848;2023-01-29T04:00:06;99787.72;;;9.18;50.35
47785;BME280;35233;55.686;37.848;2023-01-29T04:02:50;99774.66;;;9.12;50.40
47785;BME280;35233;55.686;37.848;2023-01-29T04:05:20;99777.22;;;9.17;49.84
47785;BME280;35233;55.686;37.848;2023-01-29T04:07:51;99776.41;;;9.13;50.43
47785;BME280;35233;55.686;37.848;2023-01-29T04:10:21;99765.91;;;9.10;50.16
47785;BME280;35233;55.686;37.848;2023-01-29T04:12:55;99762.41;;;9.11;50.44
47785;BME280;35233;55.686;37.848;2023-01-29T04:15:24;99771.94;;;9.17;50.37
47785;BME280;35233;55.686;37.848;2023-01-29T04:17:51;99766.69;;;9.15;50.35
47785;BME280;35233;55.686;37.848;2023-01-29T04:20:18;99758.84;;;9.12;50.31
47785;BME280;35233;55.686;37.848;2023-01-29T04:22:46;99758.06;;;9.09;50.37
47785;BME280;35233;55.686;37.848;2023-01-29T04:25:17;99764.09;;;9.14;50.48
47785;BME280;35233;55.686;37.848;2023-01-29T04:30:57;99761.47;;;9.14;50.41
47785;BME280;35233;55.686;37.848;2023-01-29T04:44:15;99747.44;;;9.12;50.29
47785;BME280;35233;55.686;37.848;2023-01-29T04:47:08;99735.25;;;9.07;50.23
47785;BME280;35233;55.686;37.848;2023-01-29T04:49:45;99743.97;;;9.11;50.39
47785;BME280;35233;55.686;37.848;2023-01-29T04:52:22;99742.19;;;9.10;50.50
47785;BME280;35233;55.686;37.848;2023-01-29T04:55:15;99748.44;;;9.07;50.24
47785;BME280;35233;55.686;37.848;2023-01-29T04:57:57;99743.09;;;9.09;50.45
47785;BME280;35233;55.686;37.848;2023-01-29T05:00:35;99741.38;;;9.08;50.23
47785;BME280;35233;55.686;37.848;2023-01-29T05:03:02;99723.94;;;9.02;50.29
47785;BME280;35233;55.686;37.848;2023-01-29T05:05:29;99737.91;;;9.06;50.43
47785;BME280;35233;55.686;37.848;2023-01-29T05:07:56;99727.38;;;9.04;50.18
47785;BME280;35233;55.686;37.848;2023-01-29T05:10:23;99725.59;;;9.06;50.27
47785;BME280;35233;55.686;37.848;2023-01-29T05:12:53;99730.00;;;9.04;50.33
47785;BME280;35233;55.686;37.848;2023-01-29T05:15:26;99718.63;;;9.04;50.28
47785;BME280;35233;55.686;37.848;2023-01-29T05:17:54;99732.69;;;9.03;50.37
47785;BME280;35233;55.686;37.848;2023-01-29T05:20:26;99715.25;;;8.97;50.04
47785;BME280;35233;55.686;37.848;2023-01-29T05:22:52;99723.16;;;8.97;50.22
47785;BME280;35233;55.686;37.848;2023-01-29T05:25:26;99740.59;;;9.03;50.25
47785;BME280;35233;55.686;37.848;2023-01-29T05:27:52;99721.44;;;8.96;50.22
47785;BME280;35233;55.686;37.848;2023-01-29T05:30:35;99669.28;;;8.69;50.42
47785;BME280;35233;55.686;37.848;2023-01-29T05:33:02;99731.84;;;9.02;50.26
47785;BME280;35233;55.686;37.848;2023-01-29T05:35:28;99745.81;;;9.04;50.10
47785;BME280;35233;55.686;37.848;2023-01-29T05:37:55;99749.38;;;9.03;50.32
47785;BME280;35233;55.686;37.848;2023-01-29T05:40:22;99731.91;;;8.99;50.33
47785;BME280;35233;55.686;37.848;2023-01-29T05:42:48;99730.06;;;9.01;50.58
47785;BME280;35233;55.686;37.848;2023-01-29T05:45:14;99720.59;;;8.94;50.20
47785;BME280;35233;55.686;37.848;2023-01-29T05:47:40;99723.09;;;9.00;50.25
47785;BME280;35233;55.686;37.848;2023-01-29T05:50:06;99739.75;;;9.01;50.13
47785;BME280;35233;55.686;37.848;2023-01-29T05:52:32;99734.47;;;9.02;50.32
47785;BME280;35233;55.686;37.848;2023-01-29T05:54:57;99733.56;;;9.03;50.35
47785;BME280;35233;55.686;37.848;2023-01-29T05:57:22;99723.16;;;8.97;50.43
47785;BME280;35233;55.686;37.848;2023-01-29T05:59:48;99739.75;;;9.02;50.46
47785;BME280;35233;55.686;37.848;2023-01-29T06:02:13;99730.94;;;9.03;50.54
47785;BME280;35233;55.686;37.848;2023-01-29T06:04:39;99744.09;;;9.03;50.73
47785;BME280;35233;55.686;37.848;2023-01-29T06:07:04;99744.16;;;9.02;50.44
47785;BME280;35233;55.686;37.848;2023-01-29T06:09:30;99745.88;;;9.01;50.36
47785;BME280;35233;55.686;37.848;2023-01-29T06:11:55;99730.97;;;9.02;50.41
47785;BME280;35233;55.686;37.848;2023-01-29T06:14:21;99731.84;;;9.02;50.43
47785;BME280;35233;55.686;37.848;2023-01-29T06:16:46;99731.84;;;9.01;50.39
47785;BME280;35233;55.686;37.848;2023-01-29T06:19:12;99739.75;;;9.01;50.32
47785;BME280;35233;55.686;37.848;2023-01-29T06:21:37;99736.31;;;8.99;50.28
47785;BME280;35233;55.686;37.848;2023-01-29T06:24:03;99727.50;;;8.98;50.62
47785;BME280;35233;55.686;37.848;2023-01-29T06:26:29;99730.94;;;9.03;49.84
47785;BME280;35233;55.686;37.848;2023-01-29T06:28:54;99726.50;;;9.05;50.23
47785;BME280;35233;55.686;37.848;2023-01-29T06:31:20;99723.09;;;9.00;50.15
47785;BME280;35233;55.686;37.848;2023-01-29T06:33:45;99731.84;;;9.01;50.35
47785;BME280;35233;55.686;37.848;2023-01-29T06:36:11;99725.66;;;9.03;50.51
47785;BME280;35233;55.686;37.848;2023-01-29T06:38:36;99719.47;;;9.04;50.36
47785;BME280;35233;55.686;37.848;2023-01-29T06:41:10;99709.81;;;9.05;50.30
47785;BME280;35233;55.686;37.848;2023-01-29T06:43:37;99711.56;;;9.04;50.25
47785;BME280;35233;55.686;37.848;2023-01-29T06:46:02;99720.38;;;9.05;50.42
47785;BME280;35233;55.686;37.848;2023-01-29T06:48:29;99718.63;;;9.04;50.37
47785;BME280;35233;55.686;37.848;2023-01-29T06:50:55;99718.53;;;9.07;50.53
47785;BME280;35233;55.686;37.848;2023-01-29T06:53:20;99711.56;;;9.04;50.57
47785;BME280;35233;55.686;37.848;2023-01-29T06:55:53;99712.41;;;9.06;50.41
47785;BME280;35233;55.686;37.848;2023-01-29T06:58:19;99702.72;;;9.07;50.74
47785;BME280;35233;55.686;37.848;2023-01-29T07:00:45;99710.56;;;9.12;50.59
47785;BME280;35233;55.686;37.848;2023-01-29T07:03:10;99710.47;;;9.16;50.62
47785;BME280;35233;55.686;37.848;2023-01-29T07:05:36;99684.22;;;9.10;50.73
47785;BME280;35233;55.686;37.848;2023-01-29T07:08:02;99694.66;;;9.15;50.81
47785;BME280;35233;55.686;37.848;2023-01-29T07:10:28;99696.41;;;9.16;50.71
47785;BME280;35233;55.686;37.848;2023-01-29T07:12:54;99692.88;;;9.17;50.79
47785;BME280;35233;55.686;37.848;2023-01-29T07:15:19;99691.06;;;9.19;50.73
47785;BME280;35233;55.686;37.848;2023-01-29T07:20:21;99677.94;;;9.16;50.64
47785;BME280;35233;55.686;37.848;2023-01-29T07:22:48;99686.53;;;9.25;50.59
47785;BME280;35233;55.686;37.848;2023-01-29T07:25:14;99678.69;;;9.22;50.64
47785;BME280;35233;55.686;37.848;2023-01-29T07:27:39;99690.00;;;9.27;50.53
47785;BME280;35233;55.686;37.848;2023-01-29T07:30:05;99689.13;;;9.27;50.58
47785;BME280;35233;55.686;37.848;2023-01-29T07:32:31;99670.88;;;9.18;50.61
47785;BME280;35233;55.686;37.848;2023-01-29T07:34:56;99689.91;;;9.30;50.74
47785;BME280;35233;55.686;37.848;2023-01-29T07:37:22;99690.75;;;9.34;51.15
47785;BME280;35233;55.686;37.848;2023-01-29T07:39:48;99685.41;;;9.36;51.42
47785;BME280;35233;55.686;37.848;2023-01-29T07:42:21;99678.38;;;9.36;51.49
47785;BME280;35233;55.686;37.848;2023-01-29T07:44:47;99675.72;;;9.38;51.76
47785;BME280;35233;55.686;37.848;2023-01-29T07:47:13;99684.47;;;9.40;51.77
47785;BME280;35233;55.686;37.848;2023-01-29T07:49:38;99678.28;;;9.39;52.07
47785;BME280;35233;55.686;37.848;2023-01-29T07:52:06;99679.97;;;9.43;52.14
47785;BME280;35233;55.686;37.848;2023-01-29T07:54:32;99674.78;;;9.40;52.19
47785;BME280;35233;55.686;37.848;2023-01-29T07:56:57;99682.63;;;9.43;52.24
47785;BME280;35233;55.686;37.848;2023-01-29T07:59:23;99675.63;;;9.41;52.20
47785;BME280;35233;55.686;37.848;2023-01-29T08:01:51;99675.50;;;9.47;52.06
47785;BME280;35233;55.686;37.848;2023-01-29T08:04:17;99663.28;;;9.43;52.05
47785;BME280;35233;55.686;37.848;2023-01-29T08:06:42;99668.28;;;9.53;52.11
47785;BME280;35233;55.686;37.848;2023-01-29T08:09:09;99653.47;;;9.49;51.98
47785;BME280;35233;55.686;37.848;2023-01-29T08:11:34;99664.66;;;9.59;52.02
47785;BME280;35233;55.686;37.848;2023-01-29T08:14:00;99674.25;;;9.62;51.73
47785;BME280;35233;55.686;37.848;2023-01-29T08:16:26;99666.31;;;9.63;51.91
47785;BME280;35233;55.686;37.848;2023-01-29T08:18:52;99659.28;;;9.64;51.97
47785;BME280;35233;55.686;37.848;2023-01-29T08:21:17;99648.72;;;9.64;51.78
47785;BME280;35233;55.686;37.848;2023-01-29T08:23:43;99646.78;;;9.70;51.63
47785;BME280;35233;55.686;37.848;2023-01-29T08:26:08;99645.78;;;9.76;51.87
47785;BME280;35233;55.686;37.848;2023-01-29T08:28:35;99593.59;;;9.53;51.78
47785;BME280;35233;55.686;37.848;2023-01-29T08:31:00;99629.16;;;9.72;51.70
47785;BME280;35233;55.686;37.848;2023-01-29T08:33:26;99631.53;;;9.83;51.74
47785;BME280;35233;55.686;37.848;2023-01-29T08:36:01;99646.41;;;9.86;51.28
47785;BME280;35233;55.686;37.848;2023-01-29T08:38:27;99634.97;;;9.85;51.47
47785;BME280;35233;55.686;37.848;2023-01-29T08:40:55;99638.47;;;9.87;51.43
47785;BME280;35233;55.686;37.848;2023-01-29T08:43:27;99621.94;;;9.81;51.57
47785;BME280;35233;55.686;37.848;2023-01-29T08:45:52;99641.97;;;9.88;51.62
47785;BME280;35233;55.686;37.848;2023-01-29T08:48:17;99637.53;;;9.88;51.69
47785;BME280;35233;55.686;37.848;2023-01-29T08:50:43;99629.75;;;9.84;51.80
47785;BME280;35233;55.686;37.848;2023-01-29T08:53:08;99637.47;;;9.91;51.66
47785;BME280;35233;55.686;37.848;2023-01-29T08:55:35;99634.81;;;9.91;51.59
47785;BME280;35233;55.686;37.848;2023-01-29T08:58:05;99634.91;;;9.88;51.80
47785;BME280;35233;55.686;37.848;2023-01-29T09:00:33;99623.53;;;9.86;51.77
47785;BME280;35233;55.686;37.848;2023-01-29T09:03:04;99637.59;;;9.87;51.97
47785;BME280;35233;55.686;37.848;2023-01-29T09:05:33;99626.13;;;9.88;51.90
47785;BME280;35233;55.686;37.848;2023-01-29T09:07:59;99612.25;;;9.80;51.83
47785;BME280;35233;55.686;37.848;2023-01-29T09:10:24;99612.22;;;9.81;52.00
47785;BME280;35233;55.686;37.848;2023-01-29T09:12:50;99623.53;;;9.86;52.04
47785;BME280;35233;55.686;37.848;2023-01-29T09:15:15;99614.72;;;9.86;52.14
47785;BME280;35233;55.686;37.848;2023-01-29T09:17:42;99616.41;;;9.90;52.06
47785;BME280;35233;55.686;37.848;2023-01-29T09:20:10;99614.59;;;9.92;51.72
47785;BME280;35233;55.686;37.848;2023-01-29T09:22:35;99619.88;;;9.92;52.10
47785;BME280;35233;55.686;37.848;2023-01-29T09:25:01;99617.25;;;9.90;52.28
47785;BME280;35233;55.686;37.848;2023-01-29T09:27:27;99620.00;;;9.86;52.23
47785;BME280;35233;55.686;37.848;2023-01-29T09:29:53;99619.06;;;9.88;52.26
47785;BME280;35233;55.686;37.848;2023-01-29T09:32:18;99604.41;;;9.77;52.25
47785;BME280;35233;55.686;37.848;2023-01-29T09:34:43;99607.81;;;9.82;52.27
47785;BME280;35233;55.686;37.848;2023-01-29T09:37:09;99580.81;;;9.72;52.61
47785;BME280;35233;55.686;37.848;2023-01-29T09:39:36;99593.78;;;9.80;52.40
47785;BME280;35233;55.686;37.848;2023-01-29T09:42:19;99581.63;;;9.74;52.50
47785;BME280;35233;55.686;37.848;2023-01-29T09:47:34;99566.56;;;9.79;52.48
47785;BME280;35233;55.686;37.848;2023-01-29T09:50:17;99568.28;;;9.80;52.66
47785;BME280;35233;55.686;37.848;2023-01-29T09:55:42;99570.03;;;9.81;52.63
47785;BME280;35233;55.686;37.848;2023-01-29T09:58:33;99566.53;;;9.81;52.54
47785;BME280;35233;55.686;37.848;2023-01-29T10:09:37;99557.97;;;9.71;52.73
47785;BME280;35233;55.686;37.848;2023-01-29T10:13:26;99551.75;;;9.73;52.75
47785;BME280;35233;55.686;37.848;2023-01-29T10:15:49;99550.88;;;9.74;52.50
47785;BME280;35233;55.686;37.848;2023-01-29T10:26:36;99530.63;;;9.75;52.60
47785;BME280;35233;55.686;37.848;2023-01-29T10:29:19;99458.44;;;9.45;52.60
47785;BME280;35233;55.686;37.848;2023-01-29T10:32:07;99502.31;;;9.80;52.61
47785;BME280;35233;55.686;37.848;2023-01-29T10:34:48;99476.38;;;9.65;52.45
47785;BME280;35233;55.686;37.848;2023-01-29T10:37:19;99492.59;;;9.82;52.65
47785;BME280;35233;55.686;37.848;2023-01-29T10:39:49;99484.03;;;9.74;52.26
47785;BME280;35233;55.686;37.848;2023-01-29T10:50:46;99464.19;;;9.92;52.30
47785;BME280;35233;55.686;37.848;2023-01-29T10:56:18;99439.75;;;9.85;52.37
47785;BME280;35233;55.686;37.848;2023-01-29T10:58:54;99440.47;;;9.90;52.35
47785;BME280;35233;55.686;37.848;2023-01-29T11:01:19;99439.56;;;9.91;52.38
47785;BME280;35233;55.686;37.848;2023-01-29T11:03:45;99431.88;;;9.84;52.64
47785;BME280;35233;55.686;37.848;2023-01-29T11:06:33;99446.78;;;9.85;52.21
47785;BME280;35233;55.686;37.848;2023-01-29T11:17:14;99439.97;;;9.78;52.43
47785;BME280;35233;55.686;37.848;2023-01-29T11:19:43;99432.09;;;9.76;52.47
47785;BME280;35233;55.686;37.848;2023-01-29T11:22:20;99426.63;;;9.82;52.28
47785;BME280;35233;55.686;37.848;2023-01-29T11:25:05;99421.41;;;9.81;52.44
47785;BME280;35233;55.686;37.848;2023-01-29T11:27:40;99413.81;;;9.70;52.69
47785;BME280;35233;55.686;37.848;2023-01-29T11:30:36;99421.44;;;9.79;52.62
47785;BME280;35233;55.686;37.848;2023-01-29T11:33:17;99423.22;;;9.79;52.55
47785;BME280;35233;55.686;37.848;2023-01-29T11:35:43;99418.16;;;9.71;52.57
47785;BME280;35233;55.686;37.848;2023-01-29T11:38:22;99419.91;;;9.72;52.19
47785;BME280;35233;55.686;37.848;2023-01-29T11:40:48;99420.63;;;9.77;52.57
47785;BME280;35233;55.686;37.848;2023-01-29T11:46:03;99410.06;;;9.77;52.04
47785;BME280;35233;55.686;37.848;2023-01-29T11:48:42;99405.59;;;9.81;52.24
47785;BME280;35233;55.686;37.848;2023-01-29T11:51:11;99393.44;;;9.75;52.59
47785;BME280;35233;55.686;37.848;2023-01-29T11:53:48;99404.84;;;9.75;52.54
47785;BME280;35233;55.686;37.848;2023-01-29T11:58:51;99410.13;;;9.75;53.08
47785;BME280;35233;55.686;37.848;2023-01-29T12:01:37;99407.44;;;9.77;53.00
47785;BME280;35233;55.686;37.848;2023-01-29T12:04:42;99397.91;;;9.71;53.31
47785;BME280;35233;55.686;37.848;2023-01-29T12:07:01;99409.28;;;9.75;53.41
47785;BME280;35233;55.686;37.848;2023-01-29T12:09:29;99397.88;;;9.73;53.48
47785;BME280;35233;55.686;37.848;2023-01-29T12:12:37;99397.28;;;11.30;52.02
47785;BME280;35233;55.686;37.848;2023-01-29T12:15:22;99410.75;;;10.43;53.63
47785;BME280;35233;55.686;37.848;2023-01-29T12:17:56;99396.00;;;10.06;54.30
47785;BME280;35233;55.686;37.848;2023-01-29T12:20:27;99397.13;;;9.99;54.59
47785;BME280;35233;55.686;37.848;2023-01-29T12:23:05;99394.75;;;9.90;55.13
47785;BME280;35233;55.686;37.848;2023-01-29T12:25:43;99403.66;;;9.86;54.94
47785;BME280;35233;55.686;37.848;2023-01-29T12:28:33;99398.44;;;9.84;55.16
47785;BME280;35233;55.686;37.848;2023-01-29T12:31:13;99401.81;;;9.89;55.18
47785;BME280;35233;55.686;37.848;2023-01-29T12:33:48;99396.63;;;9.86;55.00
47785;BME280;35233;55.686;37.848;2023-01-29T12:36:25;99385.28;;;9.83;55.05
47785;BME280;35233;55.686;37.848;2023-01-29T12:38:52;99384.44;;;9.82;55.17
47785;BME280;35233;55.686;37.848;2023-01-29T12:41:40;99376.06;;;9.68;54.96
47785;BME280;35233;55.686;37.848;2023-01-29T12:44:16;99385.56;;;9.73;55.29
47785;BME280;35233;55.686;37.848;2023-01-29T12:46:50;99385.53;;;9.75;55.21
47785;BME280;35233;55.686;37.848;2023-01-29T12:49:33;99391.75;;;9.72;55.41
47785;BME280;35233;55.686;37.848;2023-01-29T12:52:19;99381.41;;;9.65;55.75
47785;BME280;35233;55.686;37.848;2023-01-29T12:54:59;99391.94;;;9.66;55.46
47785;BME280;35233;55.686;37.848;2023-01-29T12:58:14;99389.31;;;9.66;55.98
47785;BME280;35233;55.686;37.848;2023-01-29T13:00:45;99392.81;;;9.65;56.32
47785;BME280;35233;55.686;37.848;2023-01-29T13:08:22;99391.22;;;9.60;56.27
47785;BME280;35233;55.686;37.848;2023-01-29T13:10:53;99374.81;;;9.50;56.23
47785;BME280;35233;55.686;37.848;2023-01-29T13:13:46;99384.31;;;9.56;56.04
47785;BME280;35233;55.686;37.848;2023-01-29T13:16:18;99387.03;;;9.52;56.37
47785;BME280;35233;55.686;37.848;2023-01-29T13:18:55;99340.31;;;9.26;55.98
47785;BME280;35233;55.686;37.848;2023-01-29T13:21:30;99384.41;;;9.52;55.84
47785;BME280;35233;55.686;37.848;2023-01-29T13:24:19;99388.81;;;9.52;56.21
47785;BME280;35233;55.686;37.848;2023-01-29T13:26:46;99370.47;;;9.47;56.10
47785;BME280;35233;55.686;37.848;2023-01-29T13:29:27;99363.50;;;9.46;56.04
47785;BME280;35233;55.686;37.848;2023-01-29T13:32:02;99367.84;;;9.47;55.93
47785;BME280;35233;55.686;37.848;2023-01-29T13:34:34;99355.94;;;9.34;55.81
47785;BME280;35233;55.686;37.848;2023-01-29T13:37:08;99365.38;;;9.41;55.75
47785;BME280;35233;55.686;37.848;2023-01-29T13:39:37;99370.84;;;9.35;55.58
47785;BME280;35233;55.686;37.848;2023-01-29T13:42:17;99369.81;;;9.41;55.41
47785;BME280;35233;55.686;37.848;2023-01-29T13:44:49;99359.44;;;9.35;55.33
47785;BME280;35233;55.686;37.848;2023-01-29T13:47:25;99353.22;;;9.37;55.21
47785;BME280;35233;55.686;37.848;2023-01-29T13:50:09;99365.53;;;9.37;55.29
47785;BME280;35233;55.686;37.848;2023-01-29T13:52:56;99362.06;;;9.35;55.21
47785;BME280;35233;55.686;37.848;2023-01-29T13:55:29;99368.16;;;9.37;55.18
47785;BME280;35233;55.686;37.848;2023-01-29T13:57:58;99361.13;;;9.37;55.04
47785;BME280;35233;55.686;37.848;2023-01-29T14:00:46;99356.78;;;9.35;55.04
47785;BME280;35233;55.686;37.848;2023-01-29T14:10:41;99359.63;;;9.27;55.11
47785;BME280;35233;55.686;37.848;2023-01-29T14:18:35;99356.88;;;9.32;55.39
47785;BME280;35233;55.686;37.848;2023-01-29T14:21:06;99349.06;;;9.28;55.39
47785;BME280;35233;55.686;37.848;2023-01-29T14:23:51;99336.66;;;9.32;55.30
47785;BME280;35233;55.686;37.848;2023-01-29T14:31:36;99311.63;;;9.16;55.49
47785;BME280;35233;55.686;37.848;2023-01-29T14:34:12;99320.19;;;9.24;55.44
47785;BME280;35233;55.686;37.848;2023-01-29T14:36:44;99321.91;;;9.25;55.43
47785;BME280;35233;55.686;37.848;2023-01-29T14:39:21;99327.13;;;9.28;55.41
47785;BME280;35233;55.686;37.848;2023-01-29T14:41:49;99322.66;;;9.30;55.50
47785;BME280;35233;55.686;37.848;2023-01-29T14:52:53;99322.91;;;9.21;55.59
47785;BME280;35233;55.686;37.848;2023-01-29T14:55:30;99324.53;;;9.25;55.14
47785;BME280;35233;55.686;37.848;2023-01-29T14:58:02;99294.09;;;9.15;55.35
47785;BME280;35233;55.686;37.848;2023-01-29T15:00:33;99315.00;;;9.21;55.26
47785;BME280;35233;55.686;37.848;2023-01-29T15:03:00;99325.38;;;9.27;55.35
47785;BME280;35233;55.686;37.848;2023-01-29T15:05:30;99323.66;;;9.26;55.49
47785;BME280;35233;55.686;37.848;2023-01-29T15:08:14;99286.31;;;9.10;55.70
47785;BME280;35233;55.686;37.848;2023-01-29T15:10:50;99312.44;;;9.19;55.71
47785;BME280;35233;55.686;37.848;2023-01-29T15:16:47;99299.63;;;9.05;56.11
47785;BME280;35233;55.686;37.848;2023-01-29T15:19:26;99331.69;;;9.21;55.99
47785;BME280;35233;55.686;37.848;2023-01-29T15:22:09;99317.59;;;9.22;56.17
47785;BME280;35233;55.686;37.848;2023-01-29T15:24:36;99313.41;;;9.15;56.11